sensor_id;sensor_type;location;lat;lon;timestamp;P1;durP1;ratioP1;P2;durP2;ratioP2
15669;SDS011;18524;45.190;5.732;2023-06-22T00:04:40;21.27;;;9.60;;
15669;SDS011;18524;45.190;5.732;2023-06-22T00:09:30;16.33;;;10.30;;
15669;SDS011;18524;45.190;5.732;2023-06-22T00:14:21;19.20;;;11.00;;
15669;SDS011;18524;45.190;5.732;2023-06-22T00:19:12;15.63;;;10.17;;
15669;SDS011;18524;45.190;5.732;2023-06-22T00:24:02;14.27;;;10.60;;
15669;SDS011;18524;45.190;5.732;2023-06-22T00:28:53;18.50;;;10.33;;
15669;SDS011;18524;45.190;5.732;2023-06-22T00:33:43;16.53;;;9.43;;
15669;SDS011;18524;45.190;5.732;2023-06-22T00:38:34;16.67;;;9.87;;
15669;SDS011;18524;45.190;5.732;2023-06-22T00:43:24;15.30;;;10.43;;
15669;SDS011;18524;45.190;5.732;2023-06-22T00:48:14;17.57;;;9.50;;
15669;SDS011;18524;45.190;5.732;2023-06-22T00:53:06;18.30;;;9.70;;
15669;SDS011;18524;45.190;5.732;2023-06-22T00:58:01;16.40;;;9.60;;
15669;SDS011;18524;45.190;5.732;2023-06-22T01:02:52;19.17;;;10.13;;
15669;SDS011;18524;45.190;5.732;2023-06-22T01:07:58;17.73;;;9.60;;
15669;SDS011;18524;45.190;5.732;2023-06-22T01:12:58;15.50;;;9.50;;
15669;SDS011;18524;45.190;5.732;2023-06-22T01:17:52;17.70;;;10.10;;
15669;SDS011;18524;45.190;5.732;2023-06-22T01:22:55;17.23;;;9.63;;
15669;SDS011;18524;45.190;5.732;2023-06-22T01:33:16;19.20;;;9.27;;
15669;SDS011;18524;45.190;5.732;2023-06-22T01:38:06;14.30;;;9.23;;
15669;SDS011;18524;45.190;5.732;2023-06-22T01:43:00;15.43;;;9.00;;
15669;SDS011;18524;45.190;5.732;2023-06-22T01:47:51;15.60;;;9.20;;
15669;SDS011;18524;45.190;5.732;2023-06-22T01:52:41;15.87;;;8.70;;
15669;SDS011;18524;45.190;5.732;2023-06-22T01:57:32;14.63;;;8.80;;
15669;SDS011;18524;45.190;5.732;2023-06-22T02:02:22;19.63;;;8.93;;
15669;SDS011;18524;45.190;5.732;2023-06-22T02:07:19;16.03;;;9.03;;
15669;SDS011;18524;45.190;5.732;2023-06-22T02:12:13;16.87;;;8.70;;
15669;SDS011;18524;45.190;5.732;2023-06-22T02:17:08;16.63;;;9.57;;
15669;SDS011;18524;45.190;5.732;2023-06-22T02:21:59;17.50;;;9.63;;
15669;SDS011;18524;45.190;5.732;2023-06-22T02:26:50;15.07;;;8.97;;
15669;SDS011;18524;45.190;5.732;2023-06-22T02:31:40;16.03;;;9.10;;
15669;SDS011;18524;45.190;5.732;2023-06-22T02:36:31;16.90;;;9.23;;
15669;SDS011;18524;45.190;5.732;2023-06-22T02:41:23;17.20;;;9.30;;
15669;SDS011;18524;45.190;5.732;2023-06-22T02:46:13;16.50;;;9.97;;
15669;SDS011;18524;45.190;5.732;2023-06-22T02:51:04;15.40;;;9.53;;
15669;SDS011;18524;45.190;5.732;2023-06-22T02:55:55;14.23;;;8.90;;
15669;SDS011;18524;45.190;5.732;2023-06-22T03:00:45;15.53;;;9.20;;
15669;SDS011;18524;45.190;5.732;2023-06-22T03:05:36;13.77;;;9.03;;
15669;SDS011;18524;45.190;5.732;2023-06-22T03:10:26;14.43;;;9.00;;
15669;SDS011;18524;45.190;5.732;2023-06-22T03:15:17;17.10;;;9.20;;
15669;SDS011;18524;45.190;5.732;2023-06-22T03:20:08;15.60;;;9.00;;
15669;SDS011;18524;45.190;5.732;2023-06-22T03:25:01;14.30;;;9.17;;
15669;SDS011;18524;45.190;5.732;2023-06-22T03:29:52;14.37;;;9.17;;
15669;SDS011;18524;45.190;5.732;2023-06-22T03:34:43;16.47;;;9.80;;
15669;SDS011;18524;45.190;5.732;2023-06-22T03:39:36;15.83;;;8.97;;
15669;SDS011;18524;45.190;5.732;2023-06-22T03:44:27;12.70;;;8.07;;
15669;SDS011;18524;45.190;5.732;2023-06-22T03:49:17;16.47;;;8.90;;
15669;SDS011;18524;45.190;5.732;2023-06-22T03:54:07;15.27;;;8.70;;
15669;SDS011;18524;45.190;5.732;2023-06-22T03:58:58;14.87;;;8.53;;
15669;SDS011;18524;45.190;5.732;2023-06-22T04:03:48;14.80;;;8.63;;
15669;SDS011;18524;45.190;5.732;2023-06-22T04:08:39;16.27;;;9.20;;
15669;SDS011;18524;45.190;5.732;2023-06-22T04:13:30;15.67;;;9.20;;
15669;SDS011;18524;45.190;5.732;2023-06-22T04:18:21;17.10;;;9.23;;
15669;SDS011;18524;45.190;5.732;2023-06-22T04:23:12;17.07;;;9.10;;
15669;SDS011;18524;45.190;5.732;2023-06-22T04:28:03;16.43;;;10.23;;
15669;SDS011;18524;45.190;5.732;2023-06-22T04:32:54;18.60;;;9.50;;
15669;SDS011;18524;45.190;5.732;2023-06-22T04:37:47;13.07;;;9.40;;
15669;SDS011;18524;45.190;5.732;2023-06-22T04:42:39;16.67;;;9.80;;
15669;SDS011;18524;45.190;5.732;2023-06-22T04:47:30;16.37;;;9.00;;
15669;SDS011;18524;45.190;5.732;2023-06-22T04:52:20;15.20;;;9.67;;
15669;SDS011;18524;45.190;5.732;2023-06-22T04:57:11;19.67;;;10.00;;
15669;SDS011;18524;45.190;5.732;2023-06-22T05:02:02;16.03;;;10.17;;
15669;SDS011;18524;45.190;5.732;2023-06-22T05:06:53;15.80;;;10.27;;
15669;SDS011;18524;45.190;5.732;2023-06-22T05:11:44;20.73;;;10.93;;
15669;SDS011;18524;45.190;5.732;2023-06-22T05:16:36;17.43;;;10.63;;
15669;SDS011;18524;45.190;5.732;2023-06-22T05:21:27;18.83;;;10.93;;
15669;SDS011;18524;45.190;5.732;2023-06-22T05:26:18;16.30;;;10.50;;
15669;SDS011;18524;45.190;5.732;2023-06-22T05:31:09;17.17;;;9.87;;
15669;SDS011;18524;45.190;5.732;2023-06-22T05:35:59;17.77;;;10.10;;
15669;SDS011;18524;45.190;5.732;2023-06-22T05:40:50;15.70;;;10.50;;
15669;SDS011;18524;45.190;5.732;2023-06-22T05:45:40;16.07;;;10.53;;
15669;SDS011;18524;45.190;5.732;2023-06-22T05:50:31;16.57;;;9.67;;
15669;SDS011;18524;45.190;5.732;2023-06-22T05:55:21;17.43;;;10.60;;
15669;SDS011;18524;45.190;5.732;2023-06-22T06:00:11;16.90;;;9.67;;
15669;SDS011;18524;45.190;5.732;2023-06-22T06:05:03;14.30;;;9.50;;
15669;SDS011;18524;45.190;5.732;2023-06-22T06:09:54;19.13;;;9.90;;
15669;SDS011;18524;45.190;5.732;2023-06-22T06:14:44;15.87;;;10.20;;
15669;SDS011;18524;45.190;5.732;2023-06-22T06:19:34;18.10;;;10.93;;
15669;SDS011;18524;45.190;5.732;2023-06-22T06:24:25;15.63;;;10.37;;
15669;SDS011;18524;45.190;5.732;2023-06-22T06:29:16;18.03;;;10.27;;
15669;SDS011;18524;45.190;5.732;2023-06-22T06:34:06;15.17;;;9.90;;
15669;SDS011;18524;45.190;5.732;2023-06-22T06:38:56;20.63;;;9.67;;
15669;SDS011;18524;45.190;5.732;2023-06-22T06:43:47;18.07;;;9.50;;
15669;SDS011;18524;45.190;5.732;2023-06-22T06:48:37;18.73;;;10.20;;
15669;SDS011;18524;45.190;5.732;2023-06-22T06:53:28;17.07;;;9.97;;
15669;SDS011;18524;45.190;5.732;2023-06-22T06:58:18;17.07;;;10.00;;
15669;SDS011;18524;45.190;5.732;2023-06-22T07:03:09;21.83;;;10.63;;
15669;SDS011;18524;45.190;5.732;2023-06-22T07:07:59;16.57;;;9.53;;
15669;SDS011;18524;45.190;5.732;2023-06-22T07:12:50;20.57;;;9.53;;
15669;SDS011;18524;45.190;5.732;2023-06-22T07:17:40;19.20;;;9.17;;
15669;SDS011;18524;45.190;5.732;2023-06-22T07:22:31;18.73;;;9.90;;
15669;SDS011;18524;45.190;5.732;2023-06-22T07:27:21;19.97;;;9.67;;
15669;SDS011;18524;45.190;5.732;2023-06-22T07:32:11;23.97;;;8.57;;
15669;SDS011;18524;45.190;5.732;2023-06-22T07:37:02;17.07;;;8.73;;
15669;SDS011;18524;45.190;5.732;2023-06-22T07:41:53;18.00;;;7.87;;
15669;SDS011;18524;45.190;5.732;2023-06-22T07:46:43;16.13;;;6.90;;
15669;SDS011;18524;45.190;5.732;2023-06-22T07:51:34;13.83;;;6.63;;
15669;SDS011;18524;45.190;5.732;2023-06-22T07:56:24;14.90;;;6.07;;
15669;SDS011;18524;45.190;5.732;2023-06-22T08:01:15;11.77;;;5.37;;
15669;SDS011;18524;45.190;5.732;2023-06-22T08:06:07;13.03;;;5.00;;
15669;SDS011;18524;45.190;5.732;2023-06-22T08:10:59;14.57;;;5.03;;
15669;SDS011;18524;45.190;5.732;2023-06-22T08:15:49;11.60;;;5.33;;
15669;SDS011;18524;45.190;5.732;2023-06-22T08:20:40;11.80;;;5.00;;
15669;SDS011;18524;45.190;5.732;2023-06-22T08:25:30;12.50;;;5.20;;
15669;SDS011;18524;45.190;5.732;2023-06-22T08:30:20;12.20;;;5.27;;
15669;SDS011;18524;45.190;5.732;2023-06-22T08:35:11;10.57;;;5.23;;
15669;SDS011;18524;45.190;5.732;2023-06-22T08:40:02;12.37;;;6.00;;
15669;SDS011;18524;45.190;5.732;2023-06-22T08:44:59;18.40;;;7.27;;
15669;SDS011;18524;45.190;5.732;2023-06-22T08:49:50;15.03;;;6.13;;
15669;SDS011;18524;45.190;5.732;2023-06-22T08:54:40;14.23;;;5.93;;
15669;SDS011;18524;45.190;5.732;2023-06-22T08:59:30;13.10;;;4.93;;
15669;SDS011;18524;45.190;5.732;2023-06-22T09:04:21;13.10;;;4.83;;
15669;SDS011;18524;45.190;5.732;2023-06-22T09:09:15;15.87;;;5.20;;
15669;SDS011;18524;45.190;5.732;2023-06-22T09:14:06;13.90;;;5.57;;
15669;SDS011;18524;45.190;5.732;2023-06-22T09:18:57;12.90;;;5.50;;
15669;SDS011;18524;45.190;5.732;2023-06-22T09:23:47;13.03;;;5.97;;
15669;SDS011;18524;45.190;5.732;2023-06-22T09:28:41;12.50;;;5.43;;
15669;SDS011;18524;45.190;5.732;2023-06-22T09:33:31;19.17;;;5.33;;
15669;SDS011;18524;45.190;5.732;2023-06-22T09:38:21;10.50;;;4.60;;
15669;SDS011;18524;45.190;5.732;2023-06-22T09:43:12;12.83;;;5.03;;
15669;SDS011;18524;45.190;5.732;2023-06-22T09:48:02;11.03;;;4.30;;
15669;SDS011;18524;45.190;5.732;2023-06-22T09:52:52;14.93;;;5.23;;
15669;SDS011;18524;45.190;5.732;2023-06-22T09:57:44;13.53;;;5.20;;
15669;SDS011;18524;45.190;5.732;2023-06-22T10:02:35;14.40;;;5.13;;
15669;SDS011;18524;45.190;5.732;2023-06-22T10:07:25;11.70;;;5.10;;
15669;SDS011;18524;45.190;5.732;2023-06-22T10:12:15;13.97;;;4.97;;
15669;SDS011;18524;45.190;5.732;2023-06-22T10:17:06;13.93;;;4.73;;
15669;SDS011;18524;45.190;5.732;2023-06-22T10:21:57;17.87;;;7.80;;
15669;SDS011;18524;45.190;5.732;2023-06-22T10:26:47;15.17;;;5.57;;
15669;SDS011;18524;45.190;5.732;2023-06-22T10:31:38;13.47;;;5.30;;
15669;SDS011;18524;45.190;5.732;2023-06-22T10:36:28;17.23;;;7.67;;
15669;SDS011;18524;45.190;5.732;2023-06-22T10:41:19;17.03;;;5.43;;
15669;SDS011;18524;45.190;5.732;2023-06-22T10:46:09;13.90;;;4.70;;
15669;SDS011;18524;45.190;5.732;2023-06-22T10:51:00;12.67;;;5.17;;
15669;SDS011;18524;45.190;5.732;2023-06-22T10:55:50;13.70;;;5.00;;
15669;SDS011;18524;45.190;5.732;2023-06-22T11:00:41;14.07;;;5.40;;
15669;SDS011;18524;45.190;5.732;2023-06-22T11:05:31;13.50;;;5.10;;
15669;SDS011;18524;45.190;5.732;2023-06-22T11:10:21;16.43;;;5.70;;
15669;SDS011;18524;45.190;5.732;2023-06-22T11:15:12;12.30;;;5.23;;
15669;SDS011;18524;45.190;5.732;2023-06-22T11:20:02;9.97;;;4.77;;
15669;SDS011;18524;45.190;5.732;2023-06-22T11:25:00;13.07;;;5.07;;
15669;SDS011;18524;45.190;5.732;2023-06-22T11:29:50;12.03;;;5.13;;
15669;SDS011;18524;45.190;5.732;2023-06-22T11:34:43;15.67;;;6.17;;
15669;SDS011;18524;45.190;5.732;2023-06-22T11:39:33;11.90;;;5.17;;
15669;SDS011;18524;45.190;5.732;2023-06-22T11:44:23;13.33;;;5.37;;
15669;SDS011;18524;45.190;5.732;2023-06-22T11:49:14;12.43;;;5.53;;
15669;SDS011;18524;45.190;5.732;2023-06-22T11:54:04;10.83;;;4.67;;
15669;SDS011;18524;45.190;5.732;2023-06-22T11:58:54;10.57;;;4.93;;
15669;SDS011;18524;45.190;5.732;2023-06-22T12:03:45;9.93;;;4.97;;
15669;SDS011;18524;45.190;5.732;2023-06-22T12:08:35;9.20;;;4.50;;
15669;SDS011;18524;45.190;5.732;2023-06-22T12:13:26;10.90;;;4.60;;
15669;SDS011;18524;45.190;5.732;2023-06-22T12:18:16;11.97;;;4.60;;
15669;SDS011;18524;45.190;5.732;2023-06-22T12:23:06;9.57;;;4.63;;
15669;SDS011;18524;45.190;5.732;2023-06-22T12:27:57;11.93;;;4.57;;
15669;SDS011;18524;45.190;5.732;2023-06-22T12:32:47;12.13;;;5.17;;
15669;SDS011;18524;45.190;5.732;2023-06-22T12:37:38;10.93;;;4.87;;
15669;SDS011;18524;45.190;5.732;2023-06-22T12:42:28;11.70;;;5.10;;
15669;SDS011;18524;45.190;5.732;2023-06-22T12:47:18;8.83;;;4.70;;
15669;SDS011;18524;45.190;5.732;2023-06-22T12:52:10;10.37;;;4.80;;
15669;SDS011;18524;45.190;5.732;2023-06-22T12:57:01;10.40;;;4.73;;
15669;SDS011;18524;45.190;5.732;2023-06-22T13:01:52;12.70;;;4.90;;
15669;SDS011;18524;45.190;5.732;2023-06-22T13:06:42;8.27;;;4.60;;
15669;SDS011;18524;45.190;5.732;2023-06-22T13:11:33;12.17;;;4.73;;
15669;SDS011;18524;45.190;5.732;2023-06-22T13:16:23;10.73;;;5.30;;
15669;SDS011;18524;45.190;5.732;2023-06-22T13:21:13;11.50;;;5.67;;
15669;SDS011;18524;45.190;5.732;2023-06-22T13:26:04;14.60;;;6.00;;
15669;SDS011;18524;45.190;5.732;2023-06-22T13:30:54;11.93;;;5.60;;
15669;SDS011;18524;45.190;5.732;2023-06-22T13:35:45;11.70;;;5.77;;
15669;SDS011;18524;45.190;5.732;2023-06-22T13:40:35;10.13;;;5.80;;
15669;SDS011;18524;45.190;5.732;2023-06-22T13:45:27;11.60;;;6.57;;
15669;SDS011;18524;45.190;5.732;2023-06-22T13:50:18;15.10;;;5.70;;
15669;SDS011;18524;45.190;5.732;2023-06-22T13:55:08;10.40;;;4.23;;
15669;SDS011;18524;45.190;5.732;2023-06-22T13:59:59;26.27;;;3.67;;
15669;SDS011;18524;45.190;5.732;2023-06-22T14:04:50;22.00;;;3.27;;
15669;SDS011;18524;45.190;5.732;2023-06-22T14:09:40;10.73;;;3.27;;
15669;SDS011;18524;45.190;5.732;2023-06-22T14:14:31;8.57;;;2.97;;
15669;SDS011;18524;45.190;5.732;2023-06-22T14:19:22;6.13;;;2.40;;
15669;SDS011;18524;45.190;5.732;2023-06-22T14:24:13;3.40;;;1.97;;
15669;SDS011;18524;45.190;5.732;2023-06-22T14:29:03;5.63;;;2.67;;
15669;SDS011;18524;45.190;5.732;2023-06-22T14:33:54;6.13;;;3.00;;
15669;SDS011;18524;45.190;5.732;2023-06-22T14:38:44;7.27;;;2.70;;
15669;SDS011;18524;45.190;5.732;2023-06-22T14:43:36;5.37;;;2.37;;
15669;SDS011;18524;45.190;5.732;2023-06-22T14:48:26;5.63;;;2.47;;
15669;SDS011;18524;45.190;5.732;2023-06-22T14:53:17;5.17;;;2.50;;
15669;SDS011;18524;45.190;5.732;2023-06-22T14:58:07;5.50;;;2.63;;
15669;SDS011;18524;45.190;5.732;2023-06-22T15:02:57;3.87;;;2.33;;
15669;SDS011;18524;45.190;5.732;2023-06-22T15:07:49;4.13;;;2.40;;
15669;SDS011;18524;45.190;5.732;2023-06-22T15:12:40;7.50;;;3.60;;
15669;SDS011;18524;45.190;5.732;2023-06-22T15:17:30;4.27;;;2.13;;
15669;SDS011;18524;45.190;5.732;2023-06-22T15:22:20;2.63;;;1.90;;
15669;SDS011;18524;45.190;5.732;2023-06-22T15:27:11;4.50;;;2.40;;
15669;SDS011;18524;45.190;5.732;2023-06-22T15:32:03;4.33;;;2.50;;
15669;SDS011;18524;45.190;5.732;2023-06-22T15:36:53;4.90;;;2.30;;
15669;SDS011;18524;45.190;5.732;2023-06-22T15:41:44;3.97;;;2.30;;
15669;SDS011;18524;45.190;5.732;2023-06-22T15:46:34;5.67;;;2.90;;
15669;SDS011;18524;45.190;5.732;2023-06-22T15:51:24;5.53;;;3.60;;
15669;SDS011;18524;45.190;5.732;2023-06-22T15:56:15;5.07;;;3.50;;
15669;SDS011;18524;45.190;5.732;2023-06-22T16:01:06;7.13;;;3.93;;
15669;SDS011;18524;45.190;5.732;2023-06-22T16:05:58;3.70;;;2.60;;
15669;SDS011;18524;45.190;5.732;2023-06-22T16:10:49;5.47;;;2.93;;
15669;SDS011;18524;45.190;5.732;2023-06-22T16:15:39;3.77;;;3.17;;
15669;SDS011;18524;45.190;5.732;2023-06-22T16:20:29;4.90;;;3.37;;
15669;SDS011;18524;45.190;5.732;2023-06-22T16:25:20;4.20;;;3.80;;
15669;SDS011;18524;45.190;5.732;2023-06-22T16:30:11;3.90;;;2.43;;
15669;SDS011;18524;45.190;5.732;2023-06-22T16:35:02;3.90;;;2.90;;
15669;SDS011;18524;45.190;5.732;2023-06-22T16:39:52;5.60;;;2.50;;
15669;SDS011;18524;45.190;5.732;2023-06-22T16:44:43;3.40;;;2.80;;
15669;SDS011;18524;45.190;5.732;2023-06-22T16:49:33;3.93;;;3.13;;
15669;SDS011;18524;45.190;5.732;2023-06-22T16:54:28;4.87;;;3.27;;
15669;SDS011;18524;45.190;5.732;2023-06-22T16:59:20;4.70;;;2.97;;
15669;SDS011;18524;45.190;5.732;2023-06-22T17:04:10;5.63;;;3.13;;
15669;SDS011;18524;45.190;5.732;2023-06-22T17:09:04;4.13;;;3.00;;
15669;SDS011;18524;45.190;5.732;2023-06-22T17:13:55;5.40;;;2.70;;
15669;SDS011;18524;45.190;5.732;2023-06-22T17:18:47;3.83;;;2.50;;
15669;SDS011;18524;45.190;5.732;2023-06-22T17:23:38;3.60;;;2.70;;
15669;SDS011;18524;45.190;5.732;2023-06-22T17:28:45;4.00;;;2.40;;
15669;SDS011;18524;45.190;5.732;2023-06-22T17:33:39;3.37;;;2.70;;
15669;SDS011;18524;45.190;5.732;2023-06-22T17:38:30;4.60;;;2.87;;
15669;SDS011;18524;45.190;5.732;2023-06-22T17:43:20;3.83;;;2.93;;
15669;SDS011;18524;45.190;5.732;2023-06-22T17:48:10;3.67;;;2.47;;
15669;SDS011;18524;45.190;5.732;2023-06-22T17:53:01;4.43;;;2.80;;
15669;SDS011;18524;45.190;5.732;2023-06-22T17:57:56;3.43;;;2.87;;
15669;SDS011;18524;45.190;5.732;2023-06-22T18:02:48;3.70;;;2.90;;
15669;SDS011;18524;45.190;5.732;2023-06-22T18:07:39;7.63;;;3.77;;
15669;SDS011;18524;45.190;5.732;2023-06-22T18:12:31;4.83;;;3.00;;
15669;SDS011;18524;45.190;5.732;2023-06-22T18:17:21;3.10;;;2.60;;
15669;SDS011;18524;45.190;5.732;2023-06-22T18:22:13;4.10;;;2.70;;
15669;SDS011;18524;45.190;5.732;2023-06-22T18:27:04;3.93;;;2.60;;
15669;SDS011;18524;45.190;5.732;2023-06-22T18:31:55;6.33;;;3.30;;
15669;SDS011;18524;45.190;5.732;2023-06-22T18:36:46;5.53;;;2.77;;
15669;SDS011;18524;45.190;5.732;2023-06-22T18:41:41;7.20;;;4.20;;
15669;SDS011;18524;45.190;5.732;2023-06-22T18:46:36;6.27;;;3.80;;
15669;SDS011;18524;45.190;5.732;2023-06-22T18:51:27;5.27;;;4.37;;
15669;SDS011;18524;45.190;5.732;2023-06-22T18:56:18;6.20;;;4.43;;
15669;SDS011;18524;45.190;5.732;2023-06-22T19:01:32;5.10;;;3.40;;
15669;SDS011;18524;45.190;5.732;2023-06-22T19:11:40;4.53;;;3.30;;
15669;SDS011;18524;45.190;5.732;2023-06-22T19:16:30;4.87;;;3.10;;
15669;SDS011;18524;45.190;5.732;2023-06-22T19:21:21;5.17;;;3.43;;
15669;SDS011;18524;45.190;5.732;2023-06-22T19:31:05;4.00;;;3.03;;
15669;SDS011;18524;45.190;5.732;2023-06-22T19:35:56;3.07;;;2.77;;
15669;SDS011;18524;45.190;5.732;2023-06-22T19:40:49;4.30;;;3.67;;
15669;SDS011;18524;45.190;5.732;2023-06-22T19:45:40;5.17;;;3.40;;
15669;SDS011;18524;45.190;5.732;2023-06-22T19:50:34;5.07;;;3.33;;
15669;SDS011;18524;45.190;5.732;2023-06-22T19:55:28;4.53;;;3.67;;
15669;SDS011;18524;45.190;5.732;2023-06-22T20:00:20;4.90;;;3.33;;
15669;SDS011;18524;45.190;5.732;2023-06-22T20:05:11;4.63;;;3.33;;
15669;SDS011;18524;45.190;5.732;2023-06-22T20:10:36;6.50;;;4.20;;
15669;SDS011;18524;45.190;5.732;2023-06-22T20:15:26;3.83;;;3.47;;
15669;SDS011;18524;45.190;5.732;2023-06-22T20:20:17;4.70;;;3.47;;
15669;SDS011;18524;45.190;5.732;2023-06-22T20:25:12;4.07;;;3.60;;
15669;SDS011;18524;45.190;5.732;2023-06-22T20:30:12;4.90;;;3.27;;
15669;SDS011;18524;45.190;5.732;2023-06-22T20:35:04;4.67;;;3.17;;
15669;SDS011;18524;45.190;5.732;2023-06-22T20:39:54;4.07;;;3.13;;
15669;SDS011;18524;45.190;5.732;2023-06-22T20:44:45;4.27;;;3.00;;
15669;SDS011;18524;45.190;5.732;2023-06-22T20:49:39;3.57;;;2.70;;
15669;SDS011;18524;45.190;5.732;2023-06-22T20:54:29;3.73;;;3.00;;
15669;SDS011;18524;45.190;5.732;2023-06-22T20:59:23;5.93;;;4.53;;
15669;SDS011;18524;45.190;5.732;2023-06-22T21:04:14;4.17;;;3.63;;
15669;SDS011;18524;45.190;5.732;2023-06-22T21:09:04;5.63;;;3.00;;
15669;SDS011;18524;45.190;5.732;2023-06-22T21:13:54;4.00;;;3.40;;
15669;SDS011;18524;45.190;5.732;2023-06-22T21:18:45;4.93;;;3.90;;
15669;SDS011;18524;45.190;5.732;2023-06-22T21:23:35;5.03;;;3.90;;
15669;SDS011;18524;45.190;5.732;2023-06-22T21:28:25;7.67;;;4.10;;
15669;SDS011;18524;45.190;5.732;2023-06-22T21:33:16;5.87;;;4.80;;
15669;SDS011;18524;45.190;5.732;2023-06-22T21:38:06;7.03;;;5.27;;
15669;SDS011;18524;45.190;5.732;2023-06-22T21:42:56;5.73;;;5.03;;
15669;SDS011;18524;45.190;5.732;2023-06-22T21:47:48;6.40;;;5.30;;
15669;SDS011;18524;45.190;5.732;2023-06-22T21:52:38;7.27;;;5.90;;
15669;SDS011;18524;45.190;5.732;2023-06-22T21:57:28;7.03;;;5.93;;
15669;SDS011;18524;45.190;5.732;2023-06-22T22:02:19;7.13;;;6.03;;
15669;SDS011;18524;45.190;5.732;2023-06-22T22:07:09;4.50;;;3.77;;
15669;SDS011;18524;45.190;5.732;2023-06-22T22:12:00;4.13;;;3.50;;
15669;SDS011;18524;45.190;5.732;2023-06-22T22:16:50;4.27;;;3.63;;
15669;SDS011;18524;45.190;5.732;2023-06-22T22:21:40;4.63;;;3.87;;
15669;SDS011;18524;45.190;5.732;2023-06-22T22:26:34;5.23;;;4.23;;
15669;SDS011;18524;45.190;5.732;2023-06-22T22:31:25;4.67;;;3.80;;
15669;SDS011;18524;45.190;5.732;2023-06-22T22:36:15;4.53;;;4.13;;
15669;SDS011;18524;45.190;5.732;2023-06-22T22:41:06;5.87;;;4.40;;
15669;SDS011;18524;45.190;5.732;2023-06-22T22:45:56;4.33;;;3.93;;
15669;SDS011;18524;45.190;5.732;2023-06-22T22:50:47;4.43;;;3.50;;
15669;SDS011;18524;45.190;5.732;2023-06-22T22:55:37;6.07;;;4.07;;
15669;SDS011;18524;45.190;5.732;2023-06-22T23:00:28;4.50;;;4.10;;
15669;SDS011;18524;45.190;5.732;2023-06-22T23:05:18;5.30;;;4.10;;
15669;SDS011;18524;45.190;5.732;2023-06-22T23:10:09;4.70;;;3.70;;
15669;SDS011;18524;45.190;5.732;2023-06-22T23:15:02;6.33;;;4.77;;
15669;SDS011;18524;45.190;5.732;2023-06-22T23:19:53;4.93;;;4.40;;
15669;SDS011;18524;45.190;5.732;2023-06-22T23:24:43;5.00;;;4.50;;
15669;SDS011;18524;45.190;5.732;2023-06-22T23:29:35;5.80;;;4.20;;
15669;SDS011;18524;45.190;5.732;2023-06-22T23:34:25;5.40;;;3.60;;
15669;SDS011;18524;45.190;5.732;2023-06-22T23:39:16;4.80;;;3.97;;
15669;SDS011;18524;45.190;5.732;2023-06-22T23:44:06;4.10;;;3.67;;
15669;SDS011;18524;45.190;5.732;2023-06-22T23:48:57;3.30;;;3.00;;
15669;SDS011;18524;45.190;5.732;2023-06-22T23:53:47;3.73;;;2.63;;
15669;SDS011;18524;45.190;5.732;2023-06-22T23:58:37;3.30;;;2.77;;
